Time;durP1;ratioP1;P1;durP2;ratioP2;P2;SDS_P1;SDS_P2;PMS_P1;PMS_P2;Temp;Humidity;BMP_temperature;BMP_pressure;BME280_temperature;BME280_humidity;BME280_pressure;Samples;Min_cycle;Max_cycle;Signal;HPM_P1;HPM_P2
2023/04/27 12:27:14;;;;;;;10.37;4.07;;;;;;;;;;5090704;27;20555;-82
2023/04/27 12:29:42;;;;;;;5.90;2.80;;;;;;;;;;5090410;28;20522;-81
2023/04/27 12:32:09;;;;;;;8.90;8.20;;;;;;;;;;5089004;28;20452;-89
2023/04/27 12:34:38;;;;;;;6.03;5.17;;;;;;;;;;5090573;28;20460;-84
2023/04/27 12:37:05;;;;;;;33.63;30.97;;;;;;;;;;5089243;28;20479;-82
2023/04/27 12:39:32;;;;;;;25.63;21.33;;;;;;;;;;5090806;28;20456;-81
2023/04/27 12:41:59;;;;;;;7.67;4.50;;;;;;;;;;5090592;28;20445;-82
2023/04/27 12:44:27;;;;;;;5.87;5.37;;;;;;;;;;5090354;28;20452;-82
2023/04/27 12:46:55;;;;;;;6.83;6.17;;;;;;;;;;5090249;28;20503;-81
2023/04/27 12:49:22;;;;;;;3.70;2.97;;;;;;;;;;5090469;28;20456;-81
2023/04/27 12:51:50;;;;;;;10.10;7.80;;;;;;;;;;5089060;28;20472;-84
2023/04/27 12:54:18;;;;;;;36.47;32.70;;;;;;;;;;5087410;28;20453;-82
2023/04/27 12:56:45;;;;;;;8.67;8.00;;;;;;;;;;5072244;28;20469;-83
2023/04/27 12:59:12;;;;;;;5.63;4.60;;;;;;;;;;5069539;28;20453;-82
2023/04/27 13:01:41;;;;;;;10.20;5.17;;;;;;;;;;5068642;28;20474;-85
2023/04/27 13:04:08;;;;;;;14.73;13.27;;;;;;;;;;5069408;28;20454;-83
2023/04/27 13:06:35;;;;;;;23.27;21.07;;;;;;;;;;5068030;28;21075;-82
2023/04/27 13:09:02;;;;;;;6.20;4.60;;;;;;;;;;5069154;28;20964;-86
2023/04/27 13:11:29;;;;;;;4.80;4.03;;;;;;;;;;5050286;28;20986;-83
2023/04/27 13:13:56;;;;;;;5.97;4.07;;;;;;;;;;5049195;28;20485;-86
2023/04/27 13:16:24;;;;;;;5.97;4.03;;;;;;;;;;5049965;28;20454;-85
2023/04/27 13:18:54;;;;;;;9.50;8.60;;;;;;;;;;5049338;28;20454;-87
2023/04/27 13:21:22;;;;;;;17.10;14.60;;;;;;;;;;5049809;28;20481;-82
2023/04/27 13:23:50;;;;;;;5.97;4.67;;;;;;;;;;5051004;28;20459;-82
2023/04/27 13:26:17;;;;;;;38.93;35.47;;;;;;;;;;5050482;28;20494;-82
2023/04/27 13:28:45;;;;;;;20.00;18.07;;;;;;;;;;5050570;28;20792;-82
2023/04/27 13:31:12;;;;;;;41.70;37.47;;;;;;;;;;5058443;28;20443;-82
2023/04/27 13:33:40;;;;;;;36.07;33.10;;;;;;;;;;5066177;28;20446;-81
2023/04/27 13:36:09;;;;;;;23.77;22.13;;;;;;;;;;5049796;28;20923;-88
2023/04/27 13:38:36;;;;;;;78.50;52.40;;;;;;;;;;5034897;28;20454;-82
2023/04/27 13:41:03;;;;;;;7.30;6.60;;;;;;;;;;5035949;28;20823;-85
2023/04/27 13:43:31;;;;;;;5.37;3.90;;;;;;;;;;5035766;28;20858;-88
2023/04/27 13:45:58;;;;;;;12.40;7.43;;;;;;;;;;5035566;28;20499;-82
2023/04/27 13:48:26;;;;;;;6.80;4.40;;;;;;;;;;5035688;28;20466;-83
2023/04/27 13:50:54;;;;;;;8.77;5.03;;;;;;;;;;5035599;28;20495;-86
2023/04/27 13:53:24;;;;;;;4.03;3.47;;;;;;;;;;5034428;28;20454;-83
2023/04/27 13:55:51;;;;;;;6.77;4.90;;;;;;;;;;5035654;28;20469;-83
2023/04/27 13:58:18;;;;;;;6.90;6.33;;;;;;;;;;5035424;28;20464;-83
2023/04/27 14:00:46;;;;;;;9.03;8.23;;;;;;;;;;5035407;28;20462;-83
2023/04/27 14:03:14;;;;;;;8.13;7.30;;;;;;;;;;5035396;28;20455;-84
2023/04/27 14:05:41;;;;;;;22.50;20.30;;;;;;;;;;5035246;28;20489;-82
2023/04/27 14:08:08;;;;;;;5.87;4.90;;;;;;;;;;5034449;28;20455;-86
2023/04/27 14:10:37;;;;;;;6.80;6.20;;;;;;;;;;5035103;28;20471;-88
2023/04/27 14:13:05;;;;;;;31.20;28.60;;;;;;;;;;5035135;28;20456;-83
2023/04/27 14:15:35;;;;;;;7.70;6.40;;;;;;;;;;5035171;28;20456;-83
2023/04/27 14:18:03;;;;;;;9.00;8.10;;;;;;;;;;5034963;28;20451;-88
2023/04/27 14:20:30;;;;;;;20.43;19.03;;;;;;;;;;5035486;28;20454;-81
2023/04/27 14:22:57;;;;;;;18.37;16.90;;;;;;;;;;5034006;28;20463;-82
